Terminal Aerodrome Forecast
Issued by NWS Tallahassee, FL

Home | Current Version | Previous Version | Text Only | Print | Product List | Glossary On
Versions: 1 2 3 4 5 6 7 8 9 10 11 12
000
FTUS42 KTAE 042320
TAFTLH
TAF
KTLH 042320Z 0500/0524 15005KT P6SM OVC015
     FM050800 16004KT 2SM -RA BR OVC007
     FM051500 15007KT P6SM OVC010
     FM051800 15007KT 3SM RA BR OVC010=

USA.gov is the U.S. government's official web portal to all federal, state and local government web resources and services.